• Join FlightAware (Why Join?)
  • Login
  • US Flag 
07:12AM EDT


 

Airport Tracker/Info


-or-


 

Live Flight TrackerFlight Track Log ✈ SWA1035 ✈ 23-Apr-2013 ✈ KTPA - KMCI

Flight Track Log - Related Links

Times and Time Zones

All times are in EDT time to prevent confusion due to time zone crossing. See the SWA1035 flight status page for this flight to view local times or setup timezone preferences in your user account.

Time Position Orientation Groundspeed Altitude Reporting Facility
EDT Latitude Longitude Course Direction KTS MPH feet Rate Location/Type
11:15AM 28.0847 -82.5350 328° Northwest 216 249 4,000  Level Jacksonville Center
11:16AM 28.1453 -82.5606 340° North 232 267 6,200 2,880 Climbing Jacksonville Center
11:17AM 28.2164 -82.6028 332° Northwest 251 289 9,800 2,760 Climbing Jacksonville Center
11:18AM 28.2936 -82.6475 333° Northwest 281 323 11,800 2,520 Climbing Jacksonville Center
11:20AM 28.5128 -82.7897 336° Northwest  Level FlightAware Approximate
11:20AM 28.3762 -82.7238 327° Northwest  Level Estimated
11:21AM 28.6053 -82.8276 328° Northwest  Level FlightAware Approximate
11:22AM 28.6569 -82.8714 North 378 435 22,600  Level Jacksonville Center
11:23AM 28.7508 -82.9400 327° Northwest 389 448 24,700 2,100 Climbing Jacksonville Center
11:24AM 28.8531 -83.0039 331° Northwest 394 453 26,800 1,860 Climbing Jacksonville Center
11:25AM 28.9492 -83.0706 329° Northwest 406 467 28,500 1,620 Climbing Jacksonville Center
11:26AM 29.0389 -83.1325 329° Northwest 415 478 30,100 1,680 Climbing Jacksonville Center
11:27AM 28.9907 -83.0994 330° Northwest  Level FlightAware Approximate
11:27AM 29.1389 -83.2064 327° Northwest 415 478 31,900  Level Jacksonville Center
11:28AM 29.0802 -83.1500 North  Level FlightAware Approximate
11:28AM 29.2367 -83.2733 329° Northwest 410 472 33,400  Level Jacksonville Center
11:29AM 29.3367 -83.3428 329° Northwest 410 472 34,800 1,320 Climbing Jacksonville Center
11:30AM 29.4325 -83.4100 329° Northwest 410 472 36,100 1,500 Climbing Jacksonville Center
11:31AM 29.5283 -83.4772 329° Northwest 410 472 37,900 900 Climbing Jacksonville Center
11:32AM 29.6239 -83.5425 329° Northwest 410 472 38,000  Climbing Jacksonville Center
11:33AM 29.7236 -83.6147 328° Northwest 395 455 38,000  Level Jacksonville Center
11:34AM 29.8153 -83.6803 328° Northwest 389 448 38,000  Level Jacksonville Center
11:35AM 29.9086 -83.7456 329° Northwest 394 453 38,000  Level Jacksonville Center
11:36AM 30.0003 -83.8111 328° Northwest 394 453 38,000  Level Jacksonville Center
11:37AM 30.0914 -83.8769 328° Northwest 394 453 38,000  Level Jacksonville Center
11:38AM 30.1808 -83.9428 328° Northwest 394 453 38,000  Level Jacksonville Center
11:39AM 30.2764 -84.0086 329° Northwest 394 453 38,000  Level Jacksonville Center
11:40AM 30.3572 -84.0650 329° Northwest 389 448 38,000  Level Jacksonville Center
11:41AM 30.4250 -84.1622 309° West 389 448 38,000  Level Jacksonville Center
11:42AM 30.4928 -84.2717 306° West 382 440 38,000  Level Jacksonville Center
11:43AM 30.5442 -84.3542 306° West 382 440 38,000  Level Jacksonville Center
11:44AM 30.6244 -84.4519 314° West 387 445 38,000  Level Jacksonville Center
11:45AM 30.7108 -84.5500 316° Northwest 387 445 38,000  Level Jacksonville Center
11:46AM 30.7869 -84.6386 315° West 387 445 38,000  Level Jacksonville Center
11:47AM 30.8547 -84.7172 315° West 387 445 38,000  Level Jacksonville Center
11:49AM 30.9800 -84.8622 315° West 369 425 38,000  Level Atlanta Center
11:50AM 31.0567 -84.9525 315° West 381 438 38,000  Level Atlanta Center
11:51AM 31.1331 -85.0408 315° West 381 438 38,000  Level Atlanta Center
11:52AM 31.2075 -85.1264 316° Northwest 381 438 38,000  Level Atlanta Center
11:53AM 31.2819 -85.2147 315° West 381 438 38,000  Level Atlanta Center
11:54AM 31.3583 -85.3008 316° Northwest 381 438 38,000  Level Atlanta Center
11:55AM 31.4367 -85.3919 315° West 381 438 38,000  Level Atlanta Center
11:56AM 31.5025 -85.4686 315° West 381 438 38,000  Level Atlanta Center
11:57AM 31.5767 -85.5550 315° West 381 438 38,000  Level Atlanta Center
11:58AM 31.6528 -85.6442 315° West 381 438 38,000  Level Atlanta Center
11:59AM 31.7267 -85.7333 314° West 381 438 38,000  Level Atlanta Center
12:00PM 31.8108 -85.8350 314° West 388 447 38,000  Level Atlanta Center
12:01PM 31.8867 -85.9247 315° West 383 441 38,000  Level Atlanta Center
12:02PM 31.9544 -86.0019 316° Northwest 383 441 38,000  Level Atlanta Center
12:03PM 32.0261 -86.0892 314° West 378 435 38,000  Level Atlanta Center
12:04PM 32.1058 -86.1867 314° West 378 435 38,000  Level Atlanta Center
12:05PM 32.1856 -86.2744 317° Northwest 396 456 38,000  Level Atlanta Center
12:06PM 32.2528 -86.3622 312° West 383 441 38,000  Level Atlanta Center
12:07PM 32.3325 -86.4553 315° West 383 441 38,000  Level Atlanta Center
12:08PM 32.4036 -86.5481 312° West 388 447 38,000  Level Atlanta Center
12:09PM 32.4769 -86.6389 314° West 383 441 38,000  Level Atlanta Center
12:10PM 32.5542 -86.7372 313° West 378 435 38,000  Level Atlanta Center
12:11PM 32.6292 -86.8308 314° West 378 435 38,000  Level Atlanta Center
12:12PM 32.7044 -86.9219 314° West 383 441 38,000  Level Atlanta Center
12:13PM 32.7753 -87.0183 311° West 383 441 38,000  Level Atlanta Center
12:14PM 32.8522 -87.1100 315° West 383 441 38,000  Level Atlanta Center
12:15PM 32.9250 -87.2064 312° West 383 441 38,000  Level Atlanta Center
12:16PM 32.9975 -87.3006 313° West 383 441 38,000  Level Atlanta Center
12:18PM 33.1697 -87.5231 313° West 401 461 38,000  Level Memphis Center
12:19PM 33.2431 -87.6200 312° West 396 456 38,000  Level Memphis Center
12:20PM 33.3161 -87.7172 312° West 396 456 38,000  Level Memphis Center
12:21PM 33.3911 -87.8119 313° West 391 450 38,000  Level Memphis Center
12:22PM 33.4617 -87.9044 312° West 391 450 38,000  Level Memphis Center
12:23PM 33.5344 -87.9997 313° West 386 444 38,000  Level Memphis Center
12:24PM 33.6072 -88.0950 313° West 386 444 38,000  Level Memphis Center
12:25PM 33.6800 -88.1906 312° West 386 444 38,000  Level Memphis Center
12:26PM 33.7547 -88.2861 313° West 386 444 38,000  Level Memphis Center
12:27PM 33.8250 -88.3819 311° West 386 444 38,000  Level Memphis Center
12:28PM 33.9017 -88.4803 313° West 386 444 38,000  Level Memphis Center
12:29PM 33.9742 -88.5789 312° West 386 444 38,000  Level Memphis Center
12:30PM 34.0486 -88.6775 312° West 386 444 38,000  Level Memphis Center
12:31PM 34.1208 -88.7739 312° West 386 444 38,000  Level Memphis Center
12:32PM 34.2014 -88.8781 313° West 386 444 38,000  Level Memphis Center
12:33PM 34.2736 -88.9772 311° West 391 450 38,000  Level Memphis Center
12:34PM 34.3497 -89.0742 314° West 391 450 38,000  Level Memphis Center
12:35PM 34.4217 -89.1739 311° West 391 450 38,000  Level Memphis Center
12:36PM 34.4956 -89.2736 312° West 391 450 38,000  Level Memphis Center
12:37PM 34.5694 -89.3733 312° West 391 450 38,000  Level Memphis Center
12:38PM 34.6411 -89.4736 311° West 396 456 38,000  Level Memphis Center
12:39PM 34.7086 -89.5639 312° West 396 456 38,000  Level Memphis Center
12:40PM 34.7883 -89.6719 312° West 396 456 38,000  Level Memphis Center
12:41PM 34.8600 -89.7750 310° West 401 461 38,000  Level Memphis Center
12:42PM 34.9333 -89.8733 312° West 401 461 38,000  Level Memphis Center
12:43PM 35.0150 -89.9819 313° West 421 484 38,000  Level Memphis Center
12:44PM 35.0883 -90.0831 312° West 408 470 38,000  Level Memphis Center
12:45PM 35.1617 -90.1819 312° West 403 464 38,000  Level Memphis Center
12:46PM 35.2264 -90.2706 312° West 403 464 38,000  Level Memphis Center
12:47PM 35.2994 -90.3722 311° West 403 464 38,000  Level Memphis Center
12:48PM 35.3725 -90.4742 311° West 403 464 38,000  Level Memphis Center
12:49PM 35.4472 -90.5761 312° West 403 464 38,000  Level Memphis Center
12:50PM 35.5181 -90.6783 310° West 398 458 38,000  Level Memphis Center
12:51PM 35.5928 -90.7783 313° West 398 458 38,000  Level Memphis Center
12:52PM 35.6656 -90.8783 312° West 398 458 38,000  Level Memphis Center
12:53PM 35.7381 -90.9861 310° West 387 445 38,000  Level Memphis Center
12:54PM 35.8103 -91.0892 311° West 387 445 38,000  Level Memphis Center
12:55PM 35.8786 -91.1897 310° West 387 445 38,000  Level Memphis Center
12:56PM 35.9486 -91.2903 311° West 392 451 38,000  Level Memphis Center
12:57PM 36.0231 -91.3939 312° West 392 451 38,000  Level Memphis Center
12:58PM 36.0950 -91.4950 311° West 387 445 38,000  Level Memphis Center
12:59PM 36.1650 -91.6014 309° West 387 445 38,000  Level Memphis Center
01:00PM 36.2453 -91.7056 314° West 392 451 38,000  Level Memphis Center
01:02PM 36.3686 -91.8811 311° West 399 459 38,000  Level Kansas City Center
01:03PM 36.4414 -91.9850 311° West 401 461 38,000  Level Kansas City Center
01:04PM 36.5136 -92.0903 311° West 402 463 38,000  Level Kansas City Center
01:05PM 36.5956 -92.2081 311° West 403 464 38,000  Level Kansas City Center
01:06PM 36.6703 -92.3172 310° West 408 470 38,000  Level Kansas City Center
01:07PM 36.7444 -92.4264 310° West 410 472 38,000  Level Kansas City Center
01:08PM 36.8178 -92.5358 310° West 409 471 38,000  Level Kansas City Center
01:09PM 36.8914 -92.6442 310° West 408 470 38,000  Level Kansas City Center
01:10PM 36.9647 -92.7542 310° West 409 471 38,000  Level Kansas City Center
01:11PM 37.0378 -92.8597 311° West 403 464 38,000  Level Kansas City Center
01:13PM 37.1097 -92.9672 310° West 401 461 38,000  Level Kansas City Center
01:14PM 37.1817 -93.0739 310° West 399 459 38,000  Level Kansas City Center
01:15PM 37.2542 -93.1822 310° West 400 460 38,000  Level Kansas City Center
01:16PM 37.3428 -93.3144 310° West 403 464 38,000  Level Kansas City Center
01:17PM 37.4489 -93.3872 331° Northwest 434 499 38,000  Level Kansas City Center
01:18PM 37.5583 -93.4472 337° Northwest 430 495 38,000 -780 Level Kansas City Center
01:19PM 37.6683 -93.5083 336° Northwest 427 491 36,500 -2,220 Descending Kansas City Center
01:20PM 37.7772 -93.5686 336° Northwest 425 489 33,500 -2,880 Descending Kansas City Center
01:21PM 37.8867 -93.6317 336° Northwest 427 491 30,600 -2,940 Descending Kansas City Center
01:22PM 37.9953 -93.6917 336° Northwest 425 489 27,600 -3,060 Descending Kansas City Center
01:23PM 38.1028 -93.7525 336° Northwest 421 484 24,400 -2,760 Descending Kansas City Center
01:24PM 38.2100 -93.8128 336° Northwest 419 482 21,900 -2,400 Descending Kansas City Center
01:25PM 38.3122 -93.8692 337° Northwest 405 466 19,400 -2,160 Descending Kansas City Center
01:26PM 38.4097 -93.9253 336° Northwest 389 448 17,500 -1,920 Descending Kansas City Center
01:27PM 38.5072 -93.9814 336° Northwest 372 428 15,500 -1,920 Descending Kansas City Center
01:28PM 38.6056 -94.0383 336° Northwest 347 399 13,600 -1,800 Descending Kansas City Center
01:29PM 38.6867 -94.0872 335° Northwest 339 390 11,900 -1,800 Descending Kansas City Center
01:30PM 38.7650 -94.1697 321° Northwest 325 374 10,000 -960 Descending Kansas City Center
01:31PM 38.8278 -94.2386 319° Northwest 313 360 10,000 -840 Level Kansas City Center
01:32PM 38.8903 -94.3175 316° Northwest 287 330 8,300 -1,560 Descending Kansas City Center
01:33PM 38.9247 -94.4028 297° West 280 322 6,800 -1,140 Descending Kansas City Center
01:34PM 38.9667 -94.4983 299° West 274 315 6,000 -420 Descending Kansas City Center
01:35PM 39.0008 -94.5778 299° West 266 306 6,000 -360 Level Kansas City Center
01:36PM 39.0350 -94.6572 299° West 267 307 5,300 -840 Descending Kansas City Center
01:37PM 39.0722 -94.7433 299° West 246 283 4,300 -960 Descending Kansas City Center
01:38PM 39.1267 -94.7544 351° North 218 251 3,400 -780 Descending Kansas City Center
01:39PM 39.1831 -94.7383 12° North 181 208 2,800 -480 Descending Kansas City Center
01:40PM 39.2197 -94.7278 13° North 147 169 2,400 -600 Descending Kansas City Center
01:41PM 39.2561 -94.7175 12° North 123 142 1,600 -720 Descending Kansas City Center
01:42PM 39.2925 -94.7069 13° North 125 144 1,000 -600 Descending Kansas City Center